Terminal Aerodrome Forecast
Issued by NWS

Home | Current Version | Previous Version | Text Only | Print | Product List | Glossary On
Versions: 1 2 3 4 5 6 7 8 9 10 11 12 13 14 15 16 17 18 19 20 21 22 23 24 25 26 27 28
000
FTUS46 KSGX 022320
TAFSAN
TAF
KSAN 022320Z 0300/0406 26008KT P6SM -SHRA SCT030 BKN060
     FM030300 VRB03KT P6SM VCSH FEW025 BKN060
     FM031200 12006KT P6SM -SHRA VCTS SCT025 BKN035CB
     FM031900 28011KT P6SM VCSH FEW025 SCT040
     FM040300 VRB04KT P6SM SCT040=

USA.gov is the U.S. government's official web portal to all federal, state and local government web resources and services.